sensor_id;sensor_type;location;lat;lon;timestamp;P1;durP1;ratioP1;P2;durP2;ratioP2
7813;SDS011;3952;48.364;16.022;2024-02-04T00:01:21;6.50;;;6.00;;
7813;SDS011;3952;48.364;16.022;2024-02-04T00:03:49;6.07;;;5.67;;
7813;SDS011;3952;48.364;16.022;2024-02-04T00:06:16;6.43;;;5.93;;
7813;SDS011;3952;48.364;16.022;2024-02-04T00:08:45;6.30;;;5.90;;
7813;SDS011;3952;48.364;16.022;2024-02-04T00:11:12;6.00;;;5.70;;
7813;SDS011;3952;48.364;16.022;2024-02-04T00:13:39;6.23;;;5.93;;
7813;SDS011;3952;48.364;16.022;2024-02-04T00:16:07;6.20;;;5.80;;
7813;SDS011;3952;48.364;16.022;2024-02-04T00:18:34;6.57;;;6.07;;
7813;SDS011;3952;48.364;16.022;2024-02-04T00:21:02;5.53;;;5.13;;
7813;SDS011;3952;48.364;16.022;2024-02-04T00:23:30;6.53;;;6.03;;
7813;SDS011;3952;48.364;16.022;2024-02-04T00:25:59;5.80;;;5.50;;
7813;SDS011;3952;48.364;16.022;2024-02-04T00:28:26;5.30;;;5.00;;
7813;SDS011;3952;48.364;16.022;2024-02-04T00:30:53;5.83;;;5.43;;
7813;SDS011;3952;48.364;16.022;2024-02-04T00:33:23;6.23;;;5.83;;
7813;SDS011;3952;48.364;16.022;2024-02-04T00:35:50;6.43;;;6.03;;
7813;SDS011;3952;48.364;16.022;2024-02-04T00:38:17;6.47;;;6.07;;
7813;SDS011;3952;48.364;16.022;2024-02-04T00:40:45;6.23;;;5.93;;
7813;SDS011;3952;48.364;16.022;2024-02-04T00:43:13;6.37;;;6.07;;
7813;SDS011;3952;48.364;16.022;2024-02-04T00:45:41;6.60;;;6.20;;
7813;SDS011;3952;48.364;16.022;2024-02-04T00:48:08;6.93;;;6.53;;
7813;SDS011;3952;48.364;16.022;2024-02-04T00:50:35;7.10;;;6.70;;
7813;SDS011;3952;48.364;16.022;2024-02-04T00:53:03;6.63;;;6.23;;
7813;SDS011;3952;48.364;16.022;2024-02-04T00:55:30;6.73;;;6.30;;
7813;SDS011;3952;48.364;16.022;2024-02-04T00:57:57;7.40;;;6.90;;
7813;SDS011;3952;48.364;16.022;2024-02-04T01:00:28;7.47;;;7.07;;
7813;SDS011;3952;48.364;16.022;2024-02-04T01:02:55;6.57;;;6.17;;
7813;SDS011;3952;48.364;16.022;2024-02-04T01:05:23;6.97;;;6.57;;
7813;SDS011;3952;48.364;16.022;2024-02-04T01:07:50;7.07;;;6.57;;
7813;SDS011;3952;48.364;16.022;2024-02-04T01:10:17;6.23;;;5.93;;
7813;SDS011;3952;48.364;16.022;2024-02-04T01:12:45;7.07;;;6.67;;
7813;SDS011;3952;48.364;16.022;2024-02-04T01:15:12;6.73;;;6.33;;
7813;SDS011;3952;48.364;16.022;2024-02-04T01:17:41;6.47;;;6.17;;
7813;SDS011;3952;48.364;16.022;2024-02-04T01:20:09;6.90;;;6.30;;
7813;SDS011;3952;48.364;16.022;2024-02-04T01:22:36;6.47;;;6.07;;
7813;SDS011;3952;48.364;16.022;2024-02-04T01:25:04;6.47;;;6.03;;
7813;SDS011;3952;48.364;16.022;2024-02-04T01:27:32;6.63;;;6.23;;
7813;SDS011;3952;48.364;16.022;2024-02-04T01:30:00;5.77;;;5.47;;
7813;SDS011;3952;48.364;16.022;2024-02-04T01:32:27;6.17;;;5.77;;
7813;SDS011;3952;48.364;16.022;2024-02-04T01:34:56;6.07;;;5.57;;
7813;SDS011;3952;48.364;16.022;2024-02-04T01:37:24;5.90;;;5.60;;
7813;SDS011;3952;48.364;16.022;2024-02-04T01:39:51;6.27;;;5.97;;
7813;SDS011;3952;48.364;16.022;2024-02-04T01:42:18;6.23;;;5.93;;
7813;SDS011;3952;48.364;16.022;2024-02-04T01:44:46;5.70;;;5.30;;
7813;SDS011;3952;48.364;16.022;2024-02-04T01:47:13;6.13;;;5.77;;
7813;SDS011;3952;48.364;16.022;2024-02-04T01:49:41;5.73;;;5.40;;
7813;SDS011;3952;48.364;16.022;2024-02-04T01:52:11;5.30;;;5.00;;
7813;SDS011;3952;48.364;16.022;2024-02-04T01:54:39;5.57;;;5.27;;
7813;SDS011;3952;48.364;16.022;2024-02-04T01:57:08;5.23;;;4.93;;
7813;SDS011;3952;48.364;16.022;2024-02-04T01:59:37;5.97;;;5.50;;
7813;SDS011;3952;48.364;16.022;2024-02-04T02:02:06;5.93;;;5.63;;
7813;SDS011;3952;48.364;16.022;2024-02-04T02:04:33;6.03;;;5.67;;
7813;SDS011;3952;48.364;16.022;2024-02-04T02:07:01;6.37;;;6.03;;
7813;SDS011;3952;48.364;16.022;2024-02-04T02:09:30;6.70;;;6.30;;
7813;SDS011;3952;48.364;16.022;2024-02-04T02:11:59;7.33;;;6.93;;
7813;SDS011;3952;48.364;16.022;2024-02-04T02:14:35;6.57;;;6.20;;
7813;SDS011;3952;48.364;16.022;2024-02-04T02:17:06;7.30;;;6.90;;
7813;SDS011;3952;48.364;16.022;2024-02-04T02:19:44;7.67;;;7.27;;
7813;SDS011;3952;48.364;16.022;2024-02-04T02:22:17;7.67;;;7.27;;
7813;SDS011;3952;48.364;16.022;2024-02-04T02:24:53;8.00;;;7.57;;
7813;SDS011;3952;48.364;16.022;2024-02-04T02:27:24;8.53;;;8.03;;
7813;SDS011;3952;48.364;16.022;2024-02-04T02:29:51;8.20;;;7.70;;
7813;SDS011;3952;48.364;16.022;2024-02-04T02:32:19;8.37;;;7.87;;
7813;SDS011;3952;48.364;16.022;2024-02-04T02:34:47;8.93;;;8.43;;
7813;SDS011;3952;48.364;16.022;2024-02-04T02:37:18;8.27;;;7.77;;
7813;SDS011;3952;48.364;16.022;2024-02-04T02:39:56;8.63;;;8.13;;
7813;SDS011;3952;48.364;16.022;2024-02-04T02:42:28;7.43;;;7.03;;
7813;SDS011;3952;48.364;16.022;2024-02-04T02:44:57;7.73;;;7.33;;
7813;SDS011;3952;48.364;16.022;2024-02-04T02:47:25;7.33;;;6.83;;
7813;SDS011;3952;48.364;16.022;2024-02-04T02:49:54;7.07;;;6.67;;
7813;SDS011;3952;48.364;16.022;2024-02-04T02:52:21;7.17;;;6.77;;
7813;SDS011;3952;48.364;16.022;2024-02-04T02:54:49;7.20;;;6.70;;
7813;SDS011;3952;48.364;16.022;2024-02-04T02:57:18;6.60;;;6.20;;
7813;SDS011;3952;48.364;16.022;2024-02-04T02:59:45;6.50;;;6.20;;
7813;SDS011;3952;48.364;16.022;2024-02-04T03:02:12;6.77;;;6.37;;
7813;SDS011;3952;48.364;16.022;2024-02-04T03:04:40;6.60;;;6.20;;
7813;SDS011;3952;48.364;16.022;2024-02-04T03:07:07;6.67;;;6.17;;
7813;SDS011;3952;48.364;16.022;2024-02-04T03:09:35;7.13;;;6.63;;
7813;SDS011;3952;48.364;16.022;2024-02-04T03:12:02;6.10;;;5.77;;
7813;SDS011;3952;48.364;16.022;2024-02-04T03:14:31;6.67;;;6.20;;
7813;SDS011;3952;48.364;16.022;2024-02-04T03:16:58;6.33;;;5.97;;
7813;SDS011;3952;48.364;16.022;2024-02-04T03:19:26;7.10;;;6.70;;
7813;SDS011;3952;48.364;16.022;2024-02-04T03:21:53;6.70;;;6.30;;
7813;SDS011;3952;48.364;16.022;2024-02-04T03:24:20;7.10;;;6.70;;
7813;SDS011;3952;48.364;16.022;2024-02-04T03:26:48;6.47;;;6.17;;
7813;SDS011;3952;48.364;16.022;2024-02-04T03:29:15;5.77;;;5.47;;
7813;SDS011;3952;48.364;16.022;2024-02-04T03:31:44;5.87;;;5.57;;
7813;SDS011;3952;48.364;16.022;2024-02-04T03:34:11;5.17;;;4.97;;
7813;SDS011;3952;48.364;16.022;2024-02-04T03:36:38;5.37;;;5.07;;
7813;SDS011;3952;48.364;16.022;2024-02-04T03:39:06;5.03;;;4.83;;
7813;SDS011;3952;48.364;16.022;2024-02-04T03:41:33;4.60;;;4.40;;
7813;SDS011;3952;48.364;16.022;2024-02-04T03:44:00;5.47;;;5.17;;
7813;SDS011;3952;48.364;16.022;2024-02-04T03:46:28;5.40;;;5.10;;
7813;SDS011;3952;48.364;16.022;2024-02-04T03:48:56;5.50;;;5.10;;
7813;SDS011;3952;48.364;16.022;2024-02-04T03:51:24;5.33;;;5.07;;
7813;SDS011;3952;48.364;16.022;2024-02-04T03:53:51;6.37;;;5.97;;
7813;SDS011;3952;48.364;16.022;2024-02-04T03:56:18;6.00;;;5.70;;
7813;SDS011;3952;48.364;16.022;2024-02-04T03:58:46;6.17;;;5.77;;
7813;SDS011;3952;48.364;16.022;2024-02-04T04:01:13;6.33;;;6.00;;
7813;SDS011;3952;48.364;16.022;2024-02-04T04:03:40;5.97;;;5.67;;
7813;SDS011;3952;48.364;16.022;2024-02-04T04:06:10;6.80;;;6.30;;
7813;SDS011;3952;48.364;16.022;2024-02-04T04:08:37;6.27;;;5.87;;
7813;SDS011;3952;48.364;16.022;2024-02-04T04:11:06;6.20;;;5.70;;
7813;SDS011;3952;48.364;16.022;2024-02-04T04:13:35;7.17;;;6.77;;
7813;SDS011;3952;48.364;16.022;2024-02-04T04:16:02;6.47;;;6.17;;
7813;SDS011;3952;48.364;16.022;2024-02-04T04:18:30;6.77;;;6.37;;
7813;SDS011;3952;48.364;16.022;2024-02-04T04:20:57;6.27;;;5.87;;
7813;SDS011;3952;48.364;16.022;2024-02-04T04:23:26;6.67;;;6.17;;
7813;SDS011;3952;48.364;16.022;2024-02-04T04:25:53;6.57;;;6.17;;
7813;SDS011;3952;48.364;16.022;2024-02-04T04:28:21;6.70;;;6.30;;
7813;SDS011;3952;48.364;16.022;2024-02-04T04:30:48;6.77;;;6.37;;
7813;SDS011;3952;48.364;16.022;2024-02-04T04:33:15;6.07;;;5.67;;
7813;SDS011;3952;48.364;16.022;2024-02-04T04:35:42;6.53;;;6.13;;
7813;SDS011;3952;48.364;16.022;2024-02-04T04:38:10;6.80;;;6.40;;
7813;SDS011;3952;48.364;16.022;2024-02-04T04:40:39;6.00;;;5.70;;
7813;SDS011;3952;48.364;16.022;2024-02-04T04:43:06;6.73;;;6.33;;
7813;SDS011;3952;48.364;16.022;2024-02-04T04:45:33;5.87;;;5.57;;
7813;SDS011;3952;48.364;16.022;2024-02-04T04:48:01;5.40;;;5.10;;
7813;SDS011;3952;48.364;16.022;2024-02-04T04:50:28;6.30;;;5.90;;
7813;SDS011;3952;48.364;16.022;2024-02-04T04:52:56;5.60;;;5.30;;
7813;SDS011;3952;48.364;16.022;2024-02-04T04:55:23;4.87;;;4.63;;
7813;SDS011;3952;48.364;16.022;2024-02-04T04:57:52;4.57;;;4.37;;
7813;SDS011;3952;48.364;16.022;2024-02-04T05:00:19;4.20;;;4.00;;
7813;SDS011;3952;48.364;16.022;2024-02-04T05:02:47;4.37;;;4.17;;
7813;SDS011;3952;48.364;16.022;2024-02-04T05:05:14;4.23;;;3.90;;
7813;SDS011;3952;48.364;16.022;2024-02-04T05:07:41;3.97;;;3.77;;
7813;SDS011;3952;48.364;16.022;2024-02-04T05:10:09;3.83;;;3.63;;
7813;SDS011;3952;48.364;16.022;2024-02-04T05:12:36;3.53;;;3.40;;
7813;SDS011;3952;48.364;16.022;2024-02-04T05:15:06;3.80;;;3.60;;
7813;SDS011;3952;48.364;16.022;2024-02-04T05:17:34;3.60;;;3.50;;
7813;SDS011;3952;48.364;16.022;2024-02-04T05:20:01;3.90;;;3.70;;
7813;SDS011;3952;48.364;16.022;2024-02-04T05:22:30;3.90;;;3.70;;
7813;SDS011;3952;48.364;16.022;2024-02-04T05:24:57;3.80;;;3.60;;
7813;SDS011;3952;48.364;16.022;2024-02-04T05:27:24;4.00;;;3.80;;
7813;SDS011;3952;48.364;16.022;2024-02-04T05:29:52;4.13;;;3.93;;
7813;SDS011;3952;48.364;16.022;2024-02-04T05:32:21;3.93;;;3.73;;
7813;SDS011;3952;48.364;16.022;2024-02-04T05:34:48;4.43;;;4.23;;
7813;SDS011;3952;48.364;16.022;2024-02-04T05:37:15;4.13;;;3.93;;
7813;SDS011;3952;48.364;16.022;2024-02-04T05:39:42;4.17;;;3.97;;
7813;SDS011;3952;48.364;16.022;2024-02-04T05:42:10;4.17;;;3.97;;
7813;SDS011;3952;48.364;16.022;2024-02-04T05:44:37;4.20;;;4.00;;
7813;SDS011;3952;48.364;16.022;2024-02-04T05:47:04;4.30;;;4.07;;
7813;SDS011;3952;48.364;16.022;2024-02-04T05:49:33;4.40;;;4.20;;
7813;SDS011;3952;48.364;16.022;2024-02-04T05:52:00;4.23;;;4.03;;
7813;SDS011;3952;48.364;16.022;2024-02-04T05:54:28;4.80;;;4.53;;
7813;SDS011;3952;48.364;16.022;2024-02-04T05:56:55;4.63;;;4.43;;
7813;SDS011;3952;48.364;16.022;2024-02-04T05:59:22;4.83;;;4.63;;
7813;SDS011;3952;48.364;16.022;2024-02-04T06:01:50;4.63;;;4.37;;
7813;SDS011;3952;48.364;16.022;2024-02-04T06:04:17;4.80;;;4.60;;
7813;SDS011;3952;48.364;16.022;2024-02-04T06:06:46;5.93;;;5.50;;
7813;SDS011;3952;48.364;16.022;2024-02-04T06:09:13;5.33;;;5.03;;
7813;SDS011;3952;48.364;16.022;2024-02-04T06:11:44;5.50;;;5.20;;
7813;SDS011;3952;48.364;16.022;2024-02-04T06:14:11;5.37;;;5.07;;
7813;SDS011;3952;48.364;16.022;2024-02-04T06:16:39;5.70;;;5.30;;
7813;SDS011;3952;48.364;16.022;2024-02-04T06:19:06;5.50;;;5.20;;
7813;SDS011;3952;48.364;16.022;2024-02-04T06:21:34;6.03;;;5.63;;
7813;SDS011;3952;48.364;16.022;2024-02-04T06:24:03;5.63;;;5.33;;
7813;SDS011;3952;48.364;16.022;2024-02-04T06:26:30;6.43;;;6.03;;
7813;SDS011;3952;48.364;16.022;2024-02-04T06:28:58;5.90;;;5.60;;
7813;SDS011;3952;48.364;16.022;2024-02-04T06:31:25;5.87;;;5.57;;
7813;SDS011;3952;48.364;16.022;2024-02-04T06:33:52;5.67;;;5.37;;
7813;SDS011;3952;48.364;16.022;2024-02-04T06:36:20;5.63;;;5.33;;
7813;SDS011;3952;48.364;16.022;2024-02-04T06:38:47;5.90;;;5.60;;
7813;SDS011;3952;48.364;16.022;2024-02-04T06:41:16;5.50;;;5.20;;
7813;SDS011;3952;48.364;16.022;2024-02-04T06:43:43;5.77;;;5.47;;
7813;SDS011;3952;48.364;16.022;2024-02-04T06:46:11;5.40;;;5.10;;
7813;SDS011;3952;48.364;16.022;2024-02-04T06:48:38;5.50;;;5.20;;
7813;SDS011;3952;48.364;16.022;2024-02-04T06:51:06;5.90;;;5.60;;
7813;SDS011;3952;48.364;16.022;2024-02-04T06:53:33;5.93;;;5.63;;
7813;SDS011;3952;48.364;16.022;2024-02-04T06:56:00;5.77;;;5.47;;
7813;SDS011;3952;48.364;16.022;2024-02-04T06:58:29;5.67;;;5.37;;
7813;SDS011;3952;48.364;16.022;2024-02-04T07:00:56;5.63;;;5.33;;
7813;SDS011;3952;48.364;16.022;2024-02-04T07:03:24;6.07;;;5.77;;
7813;SDS011;3952;48.364;16.022;2024-02-04T07:05:51;5.80;;;5.50;;
7813;SDS011;3952;48.364;16.022;2024-02-04T07:08:19;5.93;;;5.53;;
7813;SDS011;3952;48.364;16.022;2024-02-04T07:10:46;5.67;;;5.37;;
7813;SDS011;3952;48.364;16.022;2024-02-04T07:13:14;5.60;;;5.30;;
7813;SDS011;3952;48.364;16.022;2024-02-04T07:15:42;5.57;;;5.27;;
7813;SDS011;3952;48.364;16.022;2024-02-04T07:18:10;5.50;;;5.20;;
7813;SDS011;3952;48.364;16.022;2024-02-04T07:20:38;5.30;;;5.00;;
7813;SDS011;3952;48.364;16.022;2024-02-04T07:23:05;5.73;;;5.33;;
7813;SDS011;3952;48.364;16.022;2024-02-04T07:25:32;5.77;;;5.47;;
7813;SDS011;3952;48.364;16.022;2024-02-04T07:28:00;5.50;;;5.20;;
7813;SDS011;3952;48.364;16.022;2024-02-04T07:30:29;5.80;;;5.37;;
7813;SDS011;3952;48.364;16.022;2024-02-04T07:32:58;5.30;;;5.00;;
7813;SDS011;3952;48.364;16.022;2024-02-04T07:35:25;6.43;;;6.03;;
7813;SDS011;3952;48.364;16.022;2024-02-04T07:37:53;5.13;;;4.93;;
7813;SDS011;3952;48.364;16.022;2024-02-04T07:40:20;5.70;;;5.40;;
7813;SDS011;3952;48.364;16.022;2024-02-04T07:42:47;4.90;;;4.50;;
7813;SDS011;3952;48.364;16.022;2024-02-04T07:45:15;5.20;;;4.80;;
7813;SDS011;3952;48.364;16.022;2024-02-04T07:47:42;4.87;;;4.57;;
7813;SDS011;3952;48.364;16.022;2024-02-04T07:50:11;4.90;;;4.50;;
7813;SDS011;3952;48.364;16.022;2024-02-04T07:52:38;4.43;;;4.17;;
7813;SDS011;3952;48.364;16.022;2024-02-04T07:55:06;4.37;;;4.17;;
7813;SDS011;3952;48.364;16.022;2024-02-04T07:57:33;4.33;;;4.13;;
7813;SDS011;3952;48.364;16.022;2024-02-04T08:00:01;4.33;;;4.13;;
7813;SDS011;3952;48.364;16.022;2024-02-04T08:02:30;3.97;;;3.77;;
7813;SDS011;3952;48.364;16.022;2024-02-04T08:04:57;3.77;;;3.47;;
7813;SDS011;3952;48.364;16.022;2024-02-04T08:07:27;3.53;;;3.33;;
7813;SDS011;3952;48.364;16.022;2024-02-04T08:09:54;3.20;;;3.00;;
7813;SDS011;3952;48.364;16.022;2024-02-04T08:12:22;3.53;;;3.33;;
7813;SDS011;3952;48.364;16.022;2024-02-04T08:14:49;4.20;;;3.80;;
7813;SDS011;3952;48.364;16.022;2024-02-04T08:17:16;3.10;;;3.00;;
7813;SDS011;3952;48.364;16.022;2024-02-04T08:19:42;2.87;;;2.77;;
7813;SDS011;3952;48.364;16.022;2024-02-04T08:22:10;3.00;;;2.87;;
7813;SDS011;3952;48.364;16.022;2024-02-04T08:24:39;2.73;;;2.63;;
7813;SDS011;3952;48.364;16.022;2024-02-04T08:27:06;2.70;;;2.60;;
7813;SDS011;3952;48.364;16.022;2024-02-04T08:29:33;2.30;;;2.20;;
7813;SDS011;3952;48.364;16.022;2024-02-04T08:32:01;2.47;;;2.37;;
7813;SDS011;3952;48.364;16.022;2024-02-04T08:34:28;2.47;;;2.37;;
7813;SDS011;3952;48.364;16.022;2024-02-04T08:36:55;1.80;;;1.70;;
7813;SDS011;3952;48.364;16.022;2024-02-04T08:39:22;2.13;;;2.03;;
7813;SDS011;3952;48.364;16.022;2024-02-04T08:41:52;1.60;;;1.60;;
7813;SDS011;3952;48.364;16.022;2024-02-04T08:44:19;1.70;;;1.70;;
7813;SDS011;3952;48.364;16.022;2024-02-04T08:46:46;1.57;;;1.57;;
7813;SDS011;3952;48.364;16.022;2024-02-04T08:49:14;1.50;;;1.50;;
7813;SDS011;3952;48.364;16.022;2024-02-04T08:51:41;1.67;;;1.60;;
7813;SDS011;3952;48.364;16.022;2024-02-04T08:54:08;1.90;;;1.80;;
7813;SDS011;3952;48.364;16.022;2024-02-04T08:56:36;2.20;;;2.00;;
7813;SDS011;3952;48.364;16.022;2024-02-04T08:59:05;2.20;;;2.10;;
7813;SDS011;3952;48.364;16.022;2024-02-04T09:01:33;1.90;;;1.80;;
7813;SDS011;3952;48.364;16.022;2024-02-04T09:04:00;1.77;;;1.70;;
7813;SDS011;3952;48.364;16.022;2024-02-04T09:06:27;1.30;;;1.30;;
7813;SDS011;3952;48.364;16.022;2024-02-04T09:08:55;1.63;;;1.53;;
7813;SDS011;3952;48.364;16.022;2024-02-04T09:11:22;1.70;;;1.70;;
7813;SDS011;3952;48.364;16.022;2024-02-04T09:13:49;1.70;;;1.60;;
7813;SDS011;3952;48.364;16.022;2024-02-04T09:16:18;1.50;;;1.50;;
7813;SDS011;3952;48.364;16.022;2024-02-04T09:18:46;1.40;;;1.40;;
7813;SDS011;3952;48.364;16.022;2024-02-04T09:21:13;1.70;;;1.70;;
7813;SDS011;3952;48.364;16.022;2024-02-04T09:23:40;1.80;;;1.60;;
7813;SDS011;3952;48.364;16.022;2024-02-04T09:26:08;1.67;;;1.30;;
7813;SDS011;3952;48.364;16.022;2024-02-04T09:28:36;1.53;;;1.53;;
7813;SDS011;3952;48.364;16.022;2024-02-04T09:31:04;1.73;;;1.67;;
7813;SDS011;3952;48.364;16.022;2024-02-04T09:33:35;1.63;;;1.63;;
7813;SDS011;3952;48.364;16.022;2024-02-04T09:36:05;1.80;;;1.70;;
7813;SDS011;3952;48.364;16.022;2024-02-04T09:38:33;1.40;;;1.30;;
7813;SDS011;3952;48.364;16.022;2024-02-04T09:41:00;1.33;;;1.33;;
7813;SDS011;3952;48.364;16.022;2024-02-04T09:43:30;1.80;;;1.77;;
7813;SDS011;3952;48.364;16.022;2024-02-04T09:45:58;1.53;;;1.47;;
7813;SDS011;3952;48.364;16.022;2024-02-04T09:48:26;1.70;;;1.60;;
7813;SDS011;3952;48.364;16.022;2024-02-04T09:50:59;1.53;;;1.53;;
7813;SDS011;3952;48.364;16.022;2024-02-04T09:53:30;2.20;;;1.53;;
7813;SDS011;3952;48.364;16.022;2024-02-04T09:56:00;2.00;;;1.90;;
7813;SDS011;3952;48.364;16.022;2024-02-04T09:58:29;1.93;;;1.90;;
7813;SDS011;3952;48.364;16.022;2024-02-04T10:00:56;2.13;;;2.03;;
7813;SDS011;3952;48.364;16.022;2024-02-04T10:03:26;1.97;;;1.90;;
7813;SDS011;3952;48.364;16.022;2024-02-04T10:05:53;2.03;;;1.93;;
7813;SDS011;3952;48.364;16.022;2024-02-04T10:08:22;2.50;;;2.27;;
7813;SDS011;3952;48.364;16.022;2024-02-04T10:10:50;2.10;;;2.00;;
7813;SDS011;3952;48.364;16.022;2024-02-04T10:13:19;1.97;;;1.90;;
7813;SDS011;3952;48.364;16.022;2024-02-04T10:15:46;2.20;;;2.10;;
7813;SDS011;3952;48.364;16.022;2024-02-04T10:18:14;2.10;;;2.00;;
7813;SDS011;3952;48.364;16.022;2024-02-04T10:20:43;2.10;;;2.00;;
7813;SDS011;3952;48.364;16.022;2024-02-04T10:23:10;2.00;;;1.90;;
7813;SDS011;3952;48.364;16.022;2024-02-04T10:25:39;1.73;;;1.63;;
7813;SDS011;3952;48.364;16.022;2024-02-04T10:28:06;1.90;;;1.80;;
7813;SDS011;3952;48.364;16.022;2024-02-04T10:30:37;1.80;;;1.80;;
7813;SDS011;3952;48.364;16.022;2024-02-04T10:33:05;1.73;;;1.67;;
7813;SDS011;3952;48.364;16.022;2024-02-04T10:35:32;1.93;;;1.90;;
7813;SDS011;3952;48.364;16.022;2024-02-04T10:37:59;1.73;;;1.63;;
7813;SDS011;3952;48.364;16.022;2024-02-04T10:40:26;1.53;;;1.53;;
7813;SDS011;3952;48.364;16.022;2024-02-04T10:42:56;1.83;;;1.67;;
7813;SDS011;3952;48.364;16.022;2024-02-04T10:45:30;1.50;;;1.50;;
7813;SDS011;3952;48.364;16.022;2024-02-04T10:48:00;1.60;;;1.50;;
7813;SDS011;3952;48.364;16.022;2024-02-04T10:50:28;1.50;;;1.50;;
7813;SDS011;3952;48.364;16.022;2024-02-04T10:52:57;1.43;;;1.33;;
7813;SDS011;3952;48.364;16.022;2024-02-04T10:55:32;1.30;;;1.30;;
7813;SDS011;3952;48.364;16.022;2024-02-04T10:58:10;1.20;;;1.20;;
7813;SDS011;3952;48.364;16.022;2024-02-04T11:00:40;1.63;;;1.53;;
7813;SDS011;3952;48.364;16.022;2024-02-04T11:03:08;1.40;;;1.30;;
7813;SDS011;3952;48.364;16.022;2024-02-04T11:05:36;1.03;;;1.03;;
7813;SDS011;3952;48.364;16.022;2024-02-04T11:08:06;2.50;;;1.50;;
7813;SDS011;3952;48.364;16.022;2024-02-04T11:10:33;1.33;;;1.33;;
7813;SDS011;3952;48.364;16.022;2024-02-04T11:13:01;1.63;;;1.63;;
7813;SDS011;3952;48.364;16.022;2024-02-04T11:15:32;1.40;;;1.30;;
7813;SDS011;3952;48.364;16.022;2024-02-04T11:21:14;1.10;;;1.10;;
7813;SDS011;3952;48.364;16.022;2024-02-04T11:24:02;1.20;;;1.20;;
7813;SDS011;3952;48.364;16.022;2024-02-04T11:26:42;0.80;;;0.80;;
7813;SDS011;3952;48.364;16.022;2024-02-04T11:29:11;1.20;;;1.20;;
7813;SDS011;3952;48.364;16.022;2024-02-04T11:31:40;1.17;;;1.17;;
7813;SDS011;3952;48.364;16.022;2024-02-04T11:34:08;1.43;;;1.40;;
7813;SDS011;3952;48.364;16.022;2024-02-04T11:36:38;1.00;;;1.00;;
7813;SDS011;3952;48.364;16.022;2024-02-04T11:39:12;2.17;;;1.20;;
7813;SDS011;3952;48.364;16.022;2024-02-04T11:41:44;1.30;;;1.20;;
7813;SDS011;3952;48.364;16.022;2024-02-04T11:44:19;1.20;;;1.20;;
7813;SDS011;3952;48.364;16.022;2024-02-04T11:46:48;1.20;;;1.20;;
7813;SDS011;3952;48.364;16.022;2024-02-04T11:49:16;1.17;;;1.17;;
7813;SDS011;3952;48.364;16.022;2024-02-04T11:51:47;1.53;;;1.43;;
7813;SDS011;3952;48.364;16.022;2024-02-04T11:54:15;1.33;;;1.20;;
7813;SDS011;3952;48.364;16.022;2024-02-04T11:56:44;1.47;;;1.47;;
7813;SDS011;3952;48.364;16.022;2024-02-04T11:59:18;2.30;;;1.40;;
7813;SDS011;3952;48.364;16.022;2024-02-04T12:01:49;1.40;;;1.40;;
7813;SDS011;3952;48.364;16.022;2024-02-04T12:04:19;1.30;;;1.30;;
7813;SDS011;3952;48.364;16.022;2024-02-04T12:06:48;1.30;;;1.30;;
7813;SDS011;3952;48.364;16.022;2024-02-04T12:09:17;1.30;;;1.20;;
7813;SDS011;3952;48.364;16.022;2024-02-04T12:11:45;1.30;;;1.30;;
7813;SDS011;3952;48.364;16.022;2024-02-04T12:14:13;1.33;;;1.33;;
7813;SDS011;3952;48.364;16.022;2024-02-04T12:16:41;1.30;;;1.30;;
7813;SDS011;3952;48.364;16.022;2024-02-04T12:19:10;1.17;;;1.17;;
7813;SDS011;3952;48.364;16.022;2024-02-04T12:21:37;1.63;;;1.10;;
7813;SDS011;3952;48.364;16.022;2024-02-04T12:24:05;1.10;;;1.10;;
7813;SDS011;3952;48.364;16.022;2024-02-04T12:26:33;1.17;;;1.17;;
7813;SDS011;3952;48.364;16.022;2024-02-04T12:29:01;1.10;;;1.10;;
7813;SDS011;3952;48.364;16.022;2024-02-04T12:31:29;1.40;;;1.30;;
7813;SDS011;3952;48.364;16.022;2024-02-04T12:33:58;0.90;;;0.90;;
7813;SDS011;3952;48.364;16.022;2024-02-04T12:36:28;1.17;;;1.17;;
7813;SDS011;3952;48.364;16.022;2024-02-04T12:38:57;1.20;;;1.20;;
7813;SDS011;3952;48.364;16.022;2024-02-04T12:41:25;1.13;;;1.13;;
7813;SDS011;3952;48.364;16.022;2024-02-04T12:43:55;1.20;;;1.20;;
7813;SDS011;3952;48.364;16.022;2024-02-04T12:46:23;0.90;;;0.90;;
7813;SDS011;3952;48.364;16.022;2024-02-04T12:48:51;1.40;;;1.40;;
7813;SDS011;3952;48.364;16.022;2024-02-04T12:51:25;1.20;;;1.20;;
7813;SDS011;3952;48.364;16.022;2024-02-04T12:56:40;1.27;;;1.27;;
7813;SDS011;3952;48.364;16.022;2024-02-04T12:59:08;1.50;;;1.50;;
7813;SDS011;3952;48.364;16.022;2024-02-04T13:01:36;1.50;;;1.50;;
7813;SDS011;3952;48.364;16.022;2024-02-04T13:04:03;1.30;;;1.30;;
7813;SDS011;3952;48.364;16.022;2024-02-04T13:06:32;1.57;;;1.57;;
7813;SDS011;3952;48.364;16.022;2024-02-04T13:09:04;1.63;;;1.53;;
7813;SDS011;3952;48.364;16.022;2024-02-04T13:11:35;1.50;;;1.50;;
7813;SDS011;3952;48.364;16.022;2024-02-04T13:14:03;2.07;;;1.97;;
7813;SDS011;3952;48.364;16.022;2024-02-04T13:16:30;2.03;;;1.93;;
7813;SDS011;3952;48.364;16.022;2024-02-04T13:18:58;2.00;;;1.90;;
7813;SDS011;3952;48.364;16.022;2024-02-04T13:21:25;1.77;;;1.70;;
7813;SDS011;3952;48.364;16.022;2024-02-04T13:23:52;1.93;;;1.60;;
7813;SDS011;3952;48.364;16.022;2024-02-04T13:26:19;2.50;;;2.13;;
7813;SDS011;3952;48.364;16.022;2024-02-04T13:28:48;2.10;;;2.00;;
7813;SDS011;3952;48.364;16.022;2024-02-04T13:31:16;1.73;;;1.70;;
7813;SDS011;3952;48.364;16.022;2024-02-04T13:33:43;1.90;;;1.80;;
7813;SDS011;3952;48.364;16.022;2024-02-04T13:36:10;1.50;;;1.40;;
7813;SDS011;3952;48.364;16.022;2024-02-04T13:38:38;7.83;;;2.80;;
7813;SDS011;3952;48.364;16.022;2024-02-04T13:41:05;1.80;;;1.70;;
7813;SDS011;3952;48.364;16.022;2024-02-04T13:43:33;1.97;;;1.87;;
7813;SDS011;3952;48.364;16.022;2024-02-04T13:46:02;3.37;;;1.97;;
7813;SDS011;3952;48.364;16.022;2024-02-04T13:48:29;2.10;;;2.00;;
7813;SDS011;3952;48.364;16.022;2024-02-04T13:50:56;1.73;;;1.73;;
7813;SDS011;3952;48.364;16.022;2024-02-04T13:53:24;1.47;;;1.47;;
7813;SDS011;3952;48.364;16.022;2024-02-04T13:55:52;1.80;;;1.70;;
7813;SDS011;3952;48.364;16.022;2024-02-04T13:58:19;1.53;;;1.53;;
7813;SDS011;3952;48.364;16.022;2024-02-04T14:00:48;2.10;;;1.50;;
7813;SDS011;3952;48.364;16.022;2024-02-04T14:03:17;1.50;;;1.50;;
7813;SDS011;3952;48.364;16.022;2024-02-04T14:05:47;1.60;;;1.50;;
7813;SDS011;3952;48.364;16.022;2024-02-04T14:08:15;2.00;;;1.63;;
7813;SDS011;3952;48.364;16.022;2024-02-04T14:10:43;1.73;;;1.60;;
7813;SDS011;3952;48.364;16.022;2024-02-04T14:13:12;1.40;;;1.30;;
7813;SDS011;3952;48.364;16.022;2024-02-04T14:15:39;1.63;;;1.53;;
7813;SDS011;3952;48.364;16.022;2024-02-04T14:18:06;2.20;;;2.10;;
7813;SDS011;3952;48.364;16.022;2024-02-04T14:20:35;1.90;;;1.80;;
7813;SDS011;3952;48.364;16.022;2024-02-04T14:23:02;2.00;;;1.90;;
7813;SDS011;3952;48.364;16.022;2024-02-04T14:25:30;1.63;;;1.60;;
7813;SDS011;3952;48.364;16.022;2024-02-04T14:27:57;2.10;;;1.80;;
7813;SDS011;3952;48.364;16.022;2024-02-04T14:30:24;1.70;;;1.60;;
7813;SDS011;3952;48.364;16.022;2024-02-04T14:32:52;1.80;;;1.70;;
7813;SDS011;3952;48.364;16.022;2024-02-04T14:35:19;4.17;;;1.67;;
7813;SDS011;3952;48.364;16.022;2024-02-04T14:37:48;1.27;;;1.27;;
7813;SDS011;3952;48.364;16.022;2024-02-04T14:40:15;1.70;;;1.60;;
7813;SDS011;3952;48.364;16.022;2024-02-04T14:42:42;1.70;;;1.60;;
7813;SDS011;3952;48.364;16.022;2024-02-04T14:45:10;1.53;;;1.53;;
7813;SDS011;3952;48.364;16.022;2024-02-04T14:47:38;1.70;;;1.60;;
7813;SDS011;3952;48.364;16.022;2024-02-04T14:50:06;1.63;;;1.63;;
7813;SDS011;3952;48.364;16.022;2024-02-04T14:52:33;1.60;;;1.50;;
7813;SDS011;3952;48.364;16.022;2024-02-04T14:55:02;1.53;;;1.50;;
7813;SDS011;3952;48.364;16.022;2024-02-04T14:57:30;1.70;;;1.60;;
7813;SDS011;3952;48.364;16.022;2024-02-04T14:59:57;2.60;;;1.80;;
7813;SDS011;3952;48.364;16.022;2024-02-04T15:02:24;1.73;;;1.63;;
7813;SDS011;3952;48.364;16.022;2024-02-04T15:04:52;1.53;;;1.50;;
7813;SDS011;3952;48.364;16.022;2024-02-04T15:07:20;1.70;;;1.60;;
7813;SDS011;3952;48.364;16.022;2024-02-04T15:09:47;1.90;;;1.70;;
7813;SDS011;3952;48.364;16.022;2024-02-04T15:12:17;1.47;;;1.47;;